Time;durP1;ratioP1;P1;durP2;ratioP2;P2;SDS_P1;SDS_P2;PMS_P1;PMS_P2;Temp;Humidity;BMP_temperature;BMP_pressure;BME280_temperature;BME280_humidity;BME280_pressure;Samples;Min_cycle;Max_cycle;Signal;HPM_P1;HPM_P2
2021/09/29 05:40:41;;;;;;;;;1.50;0.00;;;;;16.50;64.83;101608.81;5561354;22;45955;-81
2021/09/29 05:43:07;;;;;;;;;0.00;0.00;;;;;16.50;65.71;101629.19;5062797;28;45463;-79
2021/09/29 05:45:32;;;;;;;;;0.00;0.00;;;;;16.47;65.20;101637.28;5064047;28;45309;-81
2021/09/29 05:47:58;;;;;;;;;0.00;0.00;;;;;16.39;65.37;101640.28;5061374;28;45307;-81
2021/09/29 05:50:23;;;;;;;;;0.00;0.00;;;;;16.37;65.79;101644.78;5060180;28;45515;-81
2021/09/29 05:52:49;;;;;;;;;0.00;0.00;;;;;16.31;65.76;101649.44;5061467;28;45400;-81
2021/09/29 05:55:14;;;;;;;;;0.00;0.00;;;;;16.27;66.32;101654.94;5062622;28;45327;-79
2021/09/29 05:57:40;;;;;;;;;0.00;0.00;;;;;16.31;66.36;101653.88;5069136;28;45388;-79
2021/09/29 06:00:06;;;;;;;;;1.75;0.00;;;;;16.34;66.46;101652.88;5061376;28;45292;-79
2021/09/29 06:02:31;;;;;;;;;0.00;0.00;;;;;16.36;66.03;101645.72;5054590;28;47372;-78
2021/09/29 06:04:57;;;;;;;;;0.00;0.00;;;;;16.39;65.54;101661.50;5062644;28;45459;-78
2021/09/29 06:07:23;;;;;;;;;0.00;0.00;;;;;16.34;65.85;101661.69;5062793;28;45288;-78
2021/09/29 06:09:48;;;;;;;;;0.00;0.00;;;;;16.28;66.16;101677.84;5061210;28;45275;-80
2021/09/29 06:12:13;;;;;;;;;0.00;0.00;;;;;16.22;66.00;101683.44;5043464;28;48455;-79
2021/09/29 06:14:41;;;;;;;;;0.00;0.00;;;;;16.24;66.44;101684.22;5056710;28;45181;-78
2021/09/29 06:19:53;;;;;;;;;0.00;0.00;;;;;16.18;66.90;101699.47;5053342;28;45327;-78
2021/09/29 06:22:21;;;;;;;;;0.00;0.00;;;;;16.17;66.36;101705.69;5055136;28;46335;-79
2021/09/29 06:24:46;;;;;;;;;0.75;0.00;;;;;16.13;66.63;101720.00;5056735;28;45537;-78
2021/09/29 06:27:12;;;;;;;;;0.00;0.00;;;;;16.13;66.50;101724.44;5062066;28;45366;-78
2021/09/29 06:29:37;;;;;;;;;0.00;0.00;;;;;16.12;66.52;101730.69;5062093;28;45218;-78
2021/09/29 06:32:03;;;;;;;;;0.50;0.00;;;;;16.12;67.31;101736.88;5057705;28;45517;-79
2021/09/29 06:34:30;;;;;;;;;0.00;0.00;;;;;16.12;67.09;101752.78;5056808;28;45204;-78
2021/09/29 06:36:56;;;;;;;;;0.00;0.00;;;;;16.11;67.16;101759.00;5061942;28;45406;-78
2021/09/29 06:39:21;;;;;;;;;0.00;0.00;;;;;16.12;67.17;101755.44;5059773;28;45293;-78
2021/09/29 06:41:47;;;;;;;;;0.00;0.00;;;;;16.15;66.94;101759.75;5061389;28;46294;-78
2021/09/29 06:44:13;;;;;;;;;1.25;0.00;;;;;16.24;66.55;101751.41;5059930;28;45508;-81
2021/09/29 06:46:39;;;;;;;;;0.00;0.00;;;;;16.37;66.51;101758.88;5060205;28;45512;-81
2021/09/29 06:49:05;;;;;;;;;0.00;0.00;;;;;16.39;66.30;101757.88;5072011;28;45262;-81
2021/09/29 06:51:30;;;;;;;;;0.00;0.00;;;;;16.47;65.77;101759.34;5053566;28;45719;-81
2021/09/29 06:53:56;;;;;;;;;0.00;0.00;;;;;16.51;65.90;101768.91;5033961;28;45433;-81
2021/09/29 06:56:21;;;;;;;;;0.00;0.00;;;;;16.56;66.09;101769.56;5061517;28;45285;-81
2021/09/29 06:58:47;;;;;;;;;0.00;0.00;;;;;16.58;65.91;101778.31;5061939;28;45145;-79
2021/09/29 07:01:13;;;;;;;;;0.00;0.00;;;;;16.58;65.63;101772.16;5061446;28;45209;-78
2021/09/29 07:03:38;;;;;;;;;0.25;0.00;;;;;16.62;66.04;101784.34;5061446;28;45390;-79
2021/09/29 07:06:04;;;;;;;;;0.00;0.00;;;;;16.57;64.92;101787.19;5060947;28;45434;-78
2021/09/29 07:08:30;;;;;;;;;0.00;0.00;;;;;16.40;65.71;101788.78;5055168;28;45402;-78
2021/09/29 07:10:55;;;;;;;;;0.00;0.00;;;;;16.36;65.71;101789.84;5055020;28;45516;-77
2021/09/29 07:13:21;;;;;;;;;0.00;0.00;;;;;16.39;65.80;101792.38;5035992;28;45391;-77
2021/09/29 07:15:47;;;;;;;;;0.00;0.00;;;;;16.42;65.54;101794.88;5060643;28;45589;-77
2021/09/29 07:18:14;;;;;;;;;0.25;0.25;;;;;16.36;65.50;101805.75;5050313;28;45465;-77
2021/09/29 07:20:40;;;;;;;;;0.50;0.00;;;;;16.29;65.03;101805.16;5043052;28;47148;-76
2021/09/29 07:23:06;;;;;;;;;2.50;0.00;;;;;16.22;65.57;101811.63;5061409;28;45358;-77
2021/09/29 07:25:32;;;;;;;;;0.00;0.00;;;;;16.20;66.03;101816.09;5061135;28;45262;-79
2021/09/29 07:27:58;;;;;;;;;0.00;0.00;;;;;16.20;65.75;101810.78;5061089;28;45409;-81
2021/09/29 07:30:24;;;;;;;;;0.00;0.00;;;;;16.17;65.35;101809.13;5056659;28;45243;-80
2021/09/29 07:32:51;;;;;;;;;1.00;0.00;;;;;16.20;65.16;101816.09;5055746;28;45142;-80
2021/09/29 07:35:17;;;;;;;;;2.00;0.00;;;;;16.12;65.36;101821.72;5060362;28;45473;-80
2021/09/29 07:38:57;;;;;;;;;0.00;0.00;;;;;15.94;65.40;101826.78;5001433;27;45293;-79
2021/09/29 07:41:22;;;;;;;;;0.75;0.00;;;;;15.84;65.62;101841.31;4973685;28;45409;-80
2021/09/29 07:43:47;;;;;;;;;0.00;0.00;;;;;15.78;65.91;101838.91;4969660;28;45568;-80
2021/09/29 07:46:13;;;;;;;;;1.00;0.00;;;;;15.77;66.27;101850.41;4972934;28;45165;-80
2021/09/29 07:48:38;;;;;;;;;0.00;0.00;;;;;15.74;66.66;101857.56;4976648;28;45495;-80
2021/09/29 07:51:04;;;;;;;;;0.50;0.00;;;;;15.67;65.83;101852.53;4972359;28;45304;-80
2021/09/29 07:53:30;;;;;;;;;0.00;0.00;;;;;15.66;66.85;101869.34;4966646;28;45501;-80
2021/09/29 07:55:56;;;;;;;;;0.00;0.00;;;;;15.62;67.01;101866.84;4965484;28;45227;-80
2021/09/29 07:58:24;;;;;;;;;0.00;0.00;;;;;15.73;67.07;101866.44;4972385;28;46120;-80
2021/09/29 08:00:50;;;;;;;;;0.00;0.00;;;;;15.87;67.36;101873.00;4973655;28;45427;-80
2021/09/29 08:03:15;;;;;;;;;0.25;0.00;;;;;15.88;66.65;101874.72;4971662;28;45299;-80
2021/09/29 08:05:41;;;;;;;;;0.00;0.00;;;;;15.88;65.99;101874.72;4958522;28;45318;-80
2021/09/29 08:08:06;;;;;;;;;0.25;0.25;;;;;15.86;66.36;101871.28;4972705;28;45685;-80
2021/09/29 08:10:32;;;;;;;;;0.00;0.00;;;;;15.87;66.79;101880.97;4962233;28;45389;-80
2021/09/29 08:12:58;;;;;;;;;0.50;0.50;;;;;15.86;66.40;101882.75;4967184;28;45161;-80
2021/09/29 08:15:24;;;;;;;;;1.00;1.00;;;;;15.90;67.11;101882.63;4973323;28;45413;-80
2021/09/29 08:17:50;;;;;;;;;0.00;0.00;;;;;15.83;65.66;101888.16;4974866;28;46995;-79
2021/09/29 08:20:19;;;;;;;;;0.25;0.25;;;;;15.73;65.24;101887.63;4985320;28;45262;-80
2021/09/29 08:22:49;;;;;;;;;0.00;0.00;;;;;15.73;65.00;101895.56;4960665;28;46816;-80
2021/09/29 08:35:55;;;;;;;;;2.00;0.00;;;;;15.49;64.45;101927.34;4964645;28;45433;-80
2021/09/29 08:38:37;;;;;;;;;0.00;0.00;;;;;15.46;63.89;101922.13;4971291;28;45545;-80
2021/09/29 08:43:49;;;;;;;;;0.75;0.00;;;;;15.46;64.77;101935.38;4961912;28;45455;-80
2021/09/29 08:57:08;;;;;;;;;0.50;0.00;;;;;15.74;63.99;101952.09;4961161;28;45449;-80
2021/09/29 09:15:57;;;;;;;;;0.00;0.00;;;;;15.88;60.36;101978.13;4972306;28;45503;-79
2021/09/29 09:18:23;;;;;;;;;0.00;0.00;;;;;15.88;58.82;101978.13;5026549;28;45299;-80
2021/09/29 09:21:01;;;;;;;;;0.75;0.00;;;;;15.87;60.52;101987.00;4958587;28;45332;-80
2021/09/29 09:23:40;;;;;;;;;0.00;0.00;;;;;15.86;60.12;101982.63;4958740;28;45231;-79
2021/09/29 09:26:14;;;;;;;;;0.00;0.00;;;;;15.96;60.34;101997.28;4958938;28;45489;-79
2021/09/29 09:28:39;;;;;;;;;0.50;0.50;;;;;15.91;59.71;101993.94;4964918;28;45369;-79
2021/09/29 09:31:12;;;;;;;;;0.00;0.00;;;;;15.92;59.06;101993.03;4966444;28;45704;-79
2021/09/29 09:33:59;;;;;;;;;1.00;1.00;;;;;15.93;58.79;102001.81;4970940;28;45268;-79
2021/09/29 09:36:29;;;;;;;;;1.00;1.00;;;;;16.01;58.76;102004.19;4960466;28;45513;-79
2021/09/29 09:38:56;;;;;;;;;1.25;0.00;;;;;16.02;60.43;101990.91;4959226;28;45638;-79
2021/09/29 09:41:24;;;;;;;;;1.00;1.00;;;;;16.14;58.30;102008.19;4958718;28;46262;-79
2021/09/29 09:43:57;;;;;;;;;0.75;0.75;;;;;16.19;56.82;101994.75;4975527;28;45396;-79
2021/09/29 09:46:24;;;;;;;;;0.75;0.75;;;;;16.28;56.18;102014.75;5010210;28;45405;-79
2021/09/29 09:49:03;;;;;;;;;2.75;0.00;;;;;16.33;56.71;102007.50;4990086;28;45477;-79
2021/09/29 09:51:30;;;;;;;;;0.00;0.00;;;;;16.27;55.58;102015.69;4964649;28;46166;-79
2021/09/29 09:53:57;;;;;;;;;1.25;1.25;;;;;16.15;56.53;102012.53;5007673;28;45437;-79
2021/09/29 09:56:28;;;;;;;;;0.00;0.00;;;;;16.12;57.21;102012.69;5021106;28;45343;-79
2021/09/29 09:58:54;;;;;;;;;0.00;0.00;;;;;16.20;57.27;102017.69;4958488;28;45476;-79
2021/09/29 10:01:21;;;;;;;;;1.00;0.75;;;;;16.23;57.33;102019.34;4961770;28;46269;-79
2021/09/29 10:03:48;;;;;;;;;0.25;0.00;;;;;16.29;57.23;102024.47;4957248;28;45398;-79
2021/09/29 10:06:14;;;;;;;;;2.00;0.75;;;;;16.29;56.58;102022.69;4959047;28;45382;-79
2021/09/29 10:08:58;;;;;;;;;1.75;1.25;;;;;16.25;55.06;102039.59;4957939;28;45354;-79
2021/09/29 10:11:28;;;;;;;;;0.00;0.00;;;;;16.35;56.52;102021.56;4967011;28;46402;-79
2021/09/29 10:27:43;;;;;;;;;1.00;1.00;;;;;16.94;55.84;102020.28;5003086;28;45526;-78
2021/09/29 10:30:12;;;;;;;;;0.75;0.75;;;;;17.06;55.06;102019.75;4958857;28;45405;-78
2021/09/29 10:32:47;;;;;;;;;1.50;0.00;;;;;17.17;54.20;102023.81;4969888;28;45532;-78
2021/09/29 10:44:20;;;;;;;;;1.00;1.00;;;;;17.25;49.44;102045.63;4969214;28;46164;-79
2021/09/29 10:49:34;;;;;;;;;4.00;1.00;;;;;17.27;51.64;102054.41;4964695;28;45204;-79
2021/09/29 11:27:41;;;;;;;;;0.00;0.00;;;;;15.74;52.82;102112.03;4958083;28;45616;-78
2021/09/29 11:30:26;;;;;;;;;0.50;0.00;;;;;15.85;51.78;102113.44;4947393;28;45413;-79
2021/09/29 11:38:40;;;;;;;;;0.00;0.00;;;;;16.16;51.35;102133.66;4981564;28;45434;-79
2021/09/29 12:07:54;;;;;;;;;1.25;0.00;;;;;16.39;51.00;102133.75;4955183;28;45710;-80
2021/09/29 12:09:50;;;;;;;;;0.00;0.00;;;;;15.50;57.07;102215.25;4954455;28;45457;-80
2021/09/29 12:12:21;;;;;;;;;0.00;0.00;;;;;15.22;58.04;102199.28;4956328;28;46235;-80
2021/09/29 12:14:52;;;;;;;;;0.00;0.00;;;;;15.09;59.59;102207.59;4957112;28;45263;-80
2021/09/29 12:17:24;;;;;;;;;1.00;0.00;;;;;15.09;59.28;102204.09;4957453;28;45528;-80
2021/09/29 12:19:54;;;;;;;;;0.00;0.00;;;;;15.10;59.96;102200.50;4956443;28;45338;-80
2021/09/29 12:22:21;;;;;;;;;0.00;0.00;;;;;15.10;59.84;102188.16;4956204;28;46190;-80
2021/09/29 12:27:31;;;;;;;;;1.00;0.00;;;;;15.27;59.34;102186.78;4960387;28;45297;-80
2021/09/29 12:29:57;;;;;;;;;1.00;1.00;;;;;15.38;59.08;102195.25;4947495;28;45397;-80
2021/09/29 12:37:39;;;;;;;;;1.00;0.00;;;;;15.60;56.37;102189.34;4949714;28;45346;-79
2021/09/29 12:40:06;;;;;;;;;0.00;0.00;;;;;15.61;56.35;102201.66;4967160;28;45320;-79
2021/09/29 12:42:39;;;;;;;;;0.00;0.00;;;;;15.60;55.79;102188.47;4961770;28;45286;-79
2021/09/29 12:45:05;;;;;;;;;0.00;0.00;;;;;15.63;56.96;102189.22;4950794;28;45367;-80
2021/09/29 12:50:03;;;;;;;;;0.00;0.00;;;;;15.77;55.86;102179.09;4996260;28;45319;-80
2021/09/29 12:52:34;;;;;;;;;1.00;0.00;;;;;15.85;53.38;102187.69;4942233;28;46071;-80
2021/09/29 12:55:01;;;;;;;;;0.25;0.00;;;;;15.93;53.88;102190.06;4946919;28;45371;-80
2021/09/29 12:57:30;;;;;;;;;0.00;0.00;;;;;15.91;52.32;102190.13;4957591;28;45540;-80
2021/09/29 12:59:59;;;;;;;;;0.00;0.00;;;;;15.96;52.76;102187.31;4947883;28;45283;-79
2021/09/29 13:02:26;;;;;;;;;0.00;0.00;;;;;16.03;52.87;102199.47;4959676;28;46570;-80
2021/09/29 13:04:53;;;;;;;;;1.50;0.00;;;;;16.06;52.23;102202.03;4959213;28;45326;-79
2021/09/29 13:07:19;;;;;;;;;0.00;0.00;;;;;16.14;53.43;102216.84;4959495;28;45326;-80
2021/09/29 13:09:44;;;;;;;;;1.00;0.00;;;;;16.18;53.42;102197.25;4947416;28;45393;-80
2021/09/29 13:12:11;;;;;;;;;2.00;0.00;;;;;16.27;53.09;102210.19;4958704;28;46529;-80
2021/09/29 13:14:37;;;;;;;;;1.00;1.00;;;;;16.33;53.62;102203.81;4956472;28;45528;-80
2021/09/29 13:17:03;;;;;;;;;0.00;0.00;;;;;16.44;51.01;102210.56;4940727;28;45444;-80
2021/09/29 13:19:41;;;;;;;;;0.00;0.00;;;;;16.46;51.15;102219.31;4957671;28;45370;-80
2021/09/29 13:22:16;;;;;;;;;2.00;1.00;;;;;16.49;50.80;102237.81;4958717;28;45524;-80
2021/09/29 13:37:41;;;;;;;;;0.00;0.00;;;;;16.23;49.76;102261.63;4959365;28;45271;-80
2021/09/29 13:40:07;;;;;;;;;0.00;0.00;;;;;16.22;48.71;102248.44;4959003;28;45429;-79
2021/09/29 13:42:32;;;;;;;;;0.00;0.00;;;;;16.29;49.62;102260.56;4947803;28;46429;-80
2021/09/29 13:44:58;;;;;;;;;1.00;0.00;;;;;16.36;48.40;102253.25;4957334;28;45264;-79
2021/09/29 13:47:24;;;;;;;;;0.00;0.00;;;;;16.33;46.80;102256.00;4959706;28;45502;-80
2021/09/29 13:49:49;;;;;;;;;1.00;0.00;;;;;16.36;48.53;102259.44;5002039;28;47322;-80
2021/09/29 13:52:19;;;;;;;;;1.25;0.00;;;;;16.34;47.84;102266.59;4969411;28;48033;-80
2021/09/29 13:54:45;;;;;;;;;0.00;0.00;;;;;16.29;48.00;102255.25;5010259;28;45572;-80
2021/09/29 13:57:21;;;;;;;;;0.25;0.00;;;;;16.31;49.27;102266.69;4974302;28;45511;-80
2021/09/29 13:59:54;;;;;;;;;0.00;0.00;;;;;16.30;48.35;102279.06;4960614;28;45286;-80
2021/09/29 14:02:41;;;;;;;;;0.00;0.00;;;;;16.29;48.41;102287.09;4960943;28;45536;-82
2021/09/29 14:32:22;;;;;;;;;1.00;0.00;;;;;16.50;46.65;102301.44;4958744;28;45385;-81
2021/09/29 14:34:48;;;;;;;;;1.00;1.00;;;;;16.37;46.90;102300.13;4956997;28;46363;-79
2021/09/29 14:37:15;;;;;;;;;0.00;0.00;;;;;16.25;47.61;102299.56;4944398;28;45513;-81
2021/09/29 14:39:40;;;;;;;;;0.25;0.00;;;;;16.16;47.85;102307.84;4948211;28;45492;-81
2021/09/29 14:42:07;;;;;;;;;2.00;0.00;;;;;16.05;47.90;102297.59;4968732;28;45532;-81
2021/09/29 14:44:33;;;;;;;;;0.25;0.00;;;;;15.95;48.96;102305.75;4945074;28;45456;-81
2021/09/29 14:46:58;;;;;;;;;2.00;0.25;;;;;15.90;48.53;102307.69;4946478;28;45692;-81
2021/09/29 14:49:24;;;;;;;;;0.25;0.00;;;;;15.94;50.03;102314.66;4974894;28;45498;-81
2021/09/29 14:51:49;;;;;;;;;0.75;0.75;;;;;15.98;49.57;102310.97;4947056;28;46529;-81
2021/09/29 14:54:14;;;;;;;;;0.50;0.00;;;;;16.02;49.37;102314.44;4945164;28;45495;-81
2021/09/29 14:56:40;;;;;;;;;0.00;0.00;;;;;16.00;48.49;102318.03;4951116;28;45394;-81
2021/09/29 14:59:06;;;;;;;;;1.75;0.25;;;;;16.02;49.55;102316.19;4948428;28;45733;-81
2021/09/29 15:01:31;;;;;;;;;1.25;1.25;;;;;16.05;49.69;102330.25;4957468;28;45592;-81
2021/09/29 15:03:58;;;;;;;;;2.00;0.25;;;;;16.05;49.94;102326.75;4957426;28;48397;-81
2021/09/29 15:06:24;;;;;;;;;0.25;0.25;;;;;16.07;50.57;102338.19;4958284;28;45708;-81
2021/09/29 15:08:50;;;;;;;;;1.75;0.50;;;;;16.05;50.13;102332.91;4957129;28;45424;-81
2021/09/29 15:11:15;;;;;;;;;0.50;0.00;;;;;15.96;49.71;102328.72;4948535;28;45350;-81
2021/09/29 15:13:57;;;;;;;;;0.00;0.00;;;;;15.91;49.94;102337.72;4951133;28;45305;-81
2021/09/29 15:16:30;;;;;;;;;0.00;0.00;;;;;15.90;50.67;102339.50;4943934;28;45685;-81
2021/09/29 15:21:41;;;;;;;;;1.00;1.00;;;;;15.91;49.73;102333.31;4948550;28;45289;-81
2021/09/29 15:27:18;;;;;;;;;0.75;0.75;;;;;15.94;50.45;102329.69;4957801;28;45321;-81
2021/09/29 15:48:38;;;;;;;;;2.25;1.00;;;;;16.03;49.08;102347.09;4974713;28;45217;-81
2021/09/29 15:57:19;;;;;;;;;0.00;0.00;;;;;16.04;49.58;102354.16;4962548;28;45398;-81
2021/09/29 16:01:50;;;;;;;;;1.00;1.00;;;;;16.00;49.60;102373.72;4958693;28;45286;-81
2021/09/29 16:07:12;;;;;;;;;2.00;0.50;;;;;15.98;51.13;102371.97;4960163;28;46159;-81
2021/09/29 16:30:24;;;;;;;;;0.50;0.00;;;;;15.97;50.72;102398.56;4960944;28;45409;-81
2021/09/29 16:37:43;;;;;;;;;2.00;1.00;;;;;15.85;51.00;102413.03;4959034;28;46129;-81
2021/09/29 16:40:09;;;;;;;;;2.00;1.00;;;;;15.84;51.43;102419.25;5001806;28;45395;-80
2021/09/29 16:42:35;;;;;;;;;1.00;0.50;;;;;15.84;51.99;102421.88;5006907;28;45466;-82
2021/09/29 16:45:03;;;;;;;;;1.00;1.00;;;;;15.82;51.46;102426.38;5020603;28;45456;-81
2021/09/29 16:47:30;;;;;;;;;0.50;0.00;;;;;15.75;51.29;102438.94;4979359;28;46419;-82
2021/09/29 16:49:56;;;;;;;;;1.00;1.00;;;;;15.66;50.22;102431.22;5027843;28;46947;-81
2021/09/29 16:54:49;;;;;;;;;0.75;0.00;;;;;15.63;51.01;102445.44;4961761;28;45341;-81
2021/09/29 16:57:18;;;;;;;;;0.00;0.00;;;;;15.60;51.04;102437.56;5033971;28;45476;-81
2021/09/29 17:02:12;;;;;;;;;1.00;1.00;;;;;15.53;51.83;102445.66;5001832;28;45402;-81
2021/09/29 17:04:37;;;;;;;;;4.00;1.00;;;;;15.56;51.76;102447.38;4955652;28;45980;-81
2021/09/29 17:07:03;;;;;;;;;1.25;0.00;;;;;15.53;51.78;102453.63;4969262;28;45452;-81
2021/09/29 17:09:28;;;;;;;;;3.50;2.00;;;;;15.53;51.70;102456.28;4972285;28;45479;-81
2021/09/29 17:11:53;;;;;;;;;0.00;0.00;;;;;15.59;51.23;102455.25;4963583;28;45586;-81
2021/09/29 17:14:19;;;;;;;;;0.00;0.00;;;;;15.52;51.90;102457.19;4969165;28;45437;-81
2021/09/29 17:16:44;;;;;;;;;1.00;1.00;;;;;15.50;51.38;102469.63;4958988;28;45412;-81
2021/09/29 17:19:10;;;;;;;;;1.00;1.00;;;;;15.49;51.93;102467.88;4960920;28;45479;-81
2021/09/29 17:21:37;;;;;;;;;2.00;0.00;;;;;15.40;51.50;102461.03;4940769;28;45260;-81
2021/09/29 17:24:04;;;;;;;;;2.00;1.00;;;;;15.40;51.67;102469.00;4942628;28;45614;-81
2021/09/29 17:26:29;;;;;;;;;0.50;0.00;;;;;15.40;51.47;102473.41;4958098;28;45454;-81
2021/09/29 17:28:59;;;;;;;;;1.75;0.50;;;;;15.42;51.88;102482.19;4958637;28;45223;-81
2021/09/29 17:31:46;;;;;;;;;2.00;0.00;;;;;15.38;50.51;102484.03;4952465;28;45408;-81
2021/09/29 17:34:32;;;;;;;;;0.25;0.25;;;;;15.37;50.06;102478.78;4957722;28;45605;-81
2021/09/29 17:39:54;;;;;;;;;1.50;0.50;;;;;15.25;50.40;102493.22;4950799;28;45385;-81
2021/09/29 17:53:16;;;;;;;;;0.75;0.75;;;;;15.18;51.81;102517.22;4953891;28;45362;-81
2021/09/29 17:55:43;;;;;;;;;1.00;0.00;;;;;15.14;52.53;102509.34;4954261;28;45604;-81
2021/09/29 17:58:08;;;;;;;;;0.00;0.00;;;;;15.13;53.14;102515.56;4951104;28;45486;-80
2021/09/29 18:00:37;;;;;;;;;2.75;0.50;;;;;15.15;52.28;102529.66;4942166;28;45520;-81
2021/09/29 18:03:06;;;;;;;;;3.00;0.75;;;;;15.14;52.63;102527.88;4958886;28;45410;-81
2021/09/29 18:08:01;;;;;;;;;1.00;1.00;;;;;15.03;52.20;102544.94;4958952;28;45934;-81
2021/09/29 18:10:28;;;;;;;;;0.50;0.50;;;;;14.99;52.22;102551.19;4955721;28;45600;-80
2021/09/29 18:12:54;;;;;;;;;1.00;1.00;;;;;14.98;52.63;102561.81;4953991;28;45197;-88
2021/09/29 18:15:20;;;;;;;;;4.00;1.00;;;;;15.00;52.67;102554.69;4974829;28;46575;-88
2021/09/29 18:17:45;;;;;;;;;2.00;1.00;;;;;14.98;53.39;102551.22;4948049;28;46177;-89
2021/09/29 18:20:11;;;;;;;;;1.75;1.00;;;;;14.99;52.62;102545.88;4953767;28;45307;-88
2021/09/29 18:22:38;;;;;;;;;1.50;1.50;;;;;15.01;53.26;102565.28;4953206;28;45473;-88
2021/09/29 18:25:07;;;;;;;;;0.50;0.50;;;;;15.04;52.95;102565.19;4958575;28;45544;-88
2021/09/29 18:27:32;;;;;;;;;2.00;2.00;;;;;15.04;53.57;102566.97;4957872;28;45172;-89
2021/09/29 18:29:59;;;;;;;;;1.00;1.00;;;;;15.01;52.99;102562.63;4948988;28;46009;-88
2021/09/29 18:32:26;;;;;;;;;1.00;1.00;;;;;15.06;52.86;102567.81;4964483;28;45497;-88
2021/09/29 18:34:51;;;;;;;;;2.00;1.50;;;;;15.04;52.86;102559.88;4962198;28;45443;-89
2021/09/29 18:37:20;;;;;;;;;2.25;1.00;;;;;15.03;54.09;102560.81;4982753;28;46499;-88
2021/09/29 18:39:46;;;;;;;;;3.25;1.75;;;;;15.04;53.26;102559.88;4969039;28;45409;-88
2021/09/29 18:42:13;;;;;;;;;2.50;1.00;;;;;15.05;53.82;102555.47;4964402;28;45374;-89
2021/09/29 18:44:40;;;;;;;;;1.75;1.75;;;;;15.04;52.95;102565.19;4960767;28;45588;-88
2021/09/29 18:47:07;;;;;;;;;1.25;0.25;;;;;15.00;53.49;102568.81;4965606;28;46293;-88
2021/09/29 18:49:32;;;;;;;;;1.00;1.00;;;;;15.01;53.89;102567.03;4980283;28;45541;-88
2021/09/29 18:51:58;;;;;;;;;2.00;1.00;;;;;15.01;54.10;102572.34;4973455;28;45525;-89
2021/09/29 18:54:31;;;;;;;;;3.75;1.25;;;;;14.98;54.50;102575.94;4973163;28;45808;-89
2021/09/29 19:07:41;;;;;;;;;5.25;4.00;;;;;14.82;55.56;102588.59;5024562;28;47331;-89
2021/09/29 19:10:07;;;;;;;;;5.50;5.50;;;;;14.80;55.62;102591.28;4957957;28;45270;-89
2021/09/29 19:12:33;;;;;;;;;4.00;3.25;;;;;14.78;55.85;102606.31;4973163;28;45323;-88
2021/09/29 19:14:58;;;;;;;;;5.75;3.00;;;;;14.72;56.10;102595.84;4957776;28;45759;-89
2021/09/29 19:17:24;;;;;;;;;4.00;4.00;;;;;14.69;56.09;102595.94;4953062;28;45664;-89
2021/09/29 19:19:51;;;;;;;;;3.00;3.00;;;;;14.66;55.79;102598.63;4970474;28;45386;-87
2021/09/29 19:22:17;;;;;;;;;5.00;2.00;;;;;14.60;55.94;102604.91;4976203;28;45431;-89
2021/09/29 19:24:44;;;;;;;;;2.00;2.00;;;;;14.56;55.92;102608.53;4969473;28;47051;-88
2021/09/29 19:27:09;;;;;;;;;1.00;1.00;;;;;14.48;55.76;102604.25;5006354;28;47133;-90
2021/09/29 19:29:35;;;;;;;;;3.00;1.50;;;;;14.52;55.98;102619.16;5058613;28;45258;-88
2021/09/29 19:32:01;;;;;;;;;2.25;2.00;;;;;14.50;56.00;102625.38;4984164;27;45429;-89
2021/09/29 19:34:29;;;;;;;;;1.00;1.00;;;;;14.50;55.73;102625.38;4995193;28;45253;-89
2021/09/29 19:36:56;;;;;;;;;2.00;2.00;;;;;14.47;56.35;102625.47;4966778;28;48259;-89
2021/09/29 19:39:21;;;;;;;;;2.00;2.00;;;;;14.51;56.80;102632.44;4966683;28;45410;-89
2021/09/29 19:41:47;;;;;;;;;4.00;2.00;;;;;14.45;56.82;102628.13;4959486;28;45331;-88
2021/09/29 19:44:15;;;;;;;;;6.75;2.75;;;;;14.49;56.68;102642.19;4958847;28;45407;-88
2021/09/29 19:46:50;;;;;;;;;3.00;3.00;;;;;14.47;57.07;102644.00;4957757;28;45378;-89
2021/09/29 20:08:31;;;;;;;;;1.75;1.50;;;;;14.31;57.50;102661.91;4969918;28;45736;-89
2021/09/29 20:11:00;;;;;;;;;1.00;1.00;;;;;14.29;57.55;102660.16;4973821;28;45224;-89
2021/09/29 20:13:26;;;;;;;;;2.00;1.50;;;;;14.24;57.26;102669.06;5027842;28;45408;-88
2021/09/29 20:15:52;;;;;;;;;1.00;1.00;;;;;14.20;57.42;102675.31;4968271;28;45303;-89
2021/09/29 20:18:19;;;;;;;;;2.50;2.50;;;;;14.22;57.36;102673.53;4957303;28;45464;-89
2021/09/29 20:20:44;;;;;;;;;3.00;1.50;;;;;14.17;57.50;102663.88;4966769;28;45394;-88
2021/09/29 20:23:10;;;;;;;;;1.50;1.50;;;;;14.17;57.63;102677.09;4958177;28;45196;-88
2021/09/29 20:25:35;;;;;;;;;2.25;2.25;;;;;14.12;57.68;102678.97;4979636;28;46036;-88
2021/09/29 20:28:02;;;;;;;;;0.00;0.00;;;;;14.12;57.15;102678.97;4955279;28;47147;-89
2021/09/29 20:30:28;;;;;;;;;1.75;1.75;;;;;14.08;57.62;102679.91;4994170;28;45260;-90
2021/09/29 20:32:59;;;;;;;;;2.25;1.50;;;;;14.11;57.65;102682.50;5025868;28;45547;-89
2021/09/29 20:43:36;;;;;;;;;0.50;0.50;;;;;14.07;57.72;102680.81;5028176;28;45438;-88
2021/09/29 20:46:11;;;;;;;;;2.75;1.00;;;;;14.09;58.54;102686.97;5041094;28;45484;-89
2021/09/29 20:48:36;;;;;;;;;1.75;1.75;;;;;14.06;57.73;102681.72;5002989;28;48224;-88
2021/09/29 20:51:03;;;;;;;;;3.00;1.75;;;;;14.04;58.25;102672.94;5000167;28;45802;-89
2021/09/29 20:53:30;;;;;;;;;2.00;2.00;;;;;14.02;57.90;102683.53;4984080;28;45335;-89
2021/09/29 20:55:56;;;;;;;;;0.00;0.00;;;;;14.02;58.14;102687.97;4974780;28;45306;-88
2021/09/29 20:58:22;;;;;;;;;1.75;1.75;;;;;13.98;58.45;102686.25;4963118;28;45342;-89
2021/09/29 21:00:48;;;;;;;;;1.50;1.50;;;;;14.00;58.56;102685.31;4952715;28;45253;-88
2021/09/29 21:03:18;;;;;;;;;2.75;2.50;;;;;13.95;58.88;102671.31;4962153;28;45462;-89
2021/09/29 21:05:47;;;;;;;;;2.25;2.25;;;;;13.93;58.37;102673.97;4959970;28;45240;-89
2021/09/29 21:08:15;;;;;;;;;2.00;2.00;;;;;13.88;58.86;102670.53;4974687;28;48048;-89
2021/09/29 21:10:53;;;;;;;;;2.50;1.50;;;;;13.89;59.03;102676.69;4959966;28;46090;-88
2021/09/29 21:13:20;;;;;;;;;0.50;0.50;;;;;13.82;59.03;102671.53;4970543;28;45353;-88
2021/09/29 21:15:48;;;;;;;;;1.00;1.00;;;;;13.79;59.18;102681.25;4959742;28;45197;-88
2021/09/29 21:18:14;;;;;;;;;2.00;1.25;;;;;13.78;59.27;102690.94;4958299;28;47559;-89
2021/09/29 21:20:47;;;;;;;;;2.75;1.75;;;;;13.76;59.18;102683.94;4963419;28;45446;-88
2021/09/29 21:23:15;;;;;;;;;2.50;2.50;;;;;13.66;59.36;102684.06;4968082;28;45289;-89
2021/09/29 21:25:42;;;;;;;;;6.00;4.75;;;;;13.64;59.95;102683.22;4963564;28;47665;-88
2021/09/29 21:28:10;;;;;;;;;12.00;9.50;;;;;13.67;59.83;102701.69;4959435;28;45704;-88
2021/09/29 21:30:44;;;;;;;;;8.75;7.50;;;;;13.63;60.10;102697.31;4962982;28;45235;-89
2021/09/29 21:33:11;;;;;;;;;9.25;6.50;;;;;13.63;60.00;102707.91;5011704;28;45180;-89
2021/09/29 21:35:36;;;;;;;;;5.50;4.25;;;;;13.56;60.19;102707.13;4959272;28;46401;-91
2021/09/29 21:43:35;;;;;;;;;4.75;3.50;;;;;13.52;59.96;102709.78;4992154;28;45197;-88
2021/09/29 22:24:19;;;;;;;;;5.25;3.00;;;;;13.05;61.20;102727.09;5051132;28;45749;-81
2021/09/29 23:01:23;;;;;;;;;5.00;3.00;;;;;12.77;62.21;102722.09;4981507;28;45196;-81
2021/09/29 23:05:55;;;;;;;;;1.75;1.75;;;;;12.77;61.63;102733.53;4945993;28;45260;-82
2021/09/29 23:32:32;;;;;;;;;1.25;1.00;;;;;12.68;61.96;102741.56;4963529;28;45245;-83
2021/09/29 23:34:58;;;;;;;;;1.50;1.00;;;;;12.67;61.98;102732.75;4958163;28;45300;-83
2021/09/29 23:37:26;;;;;;;;;4.50;2.00;;;;;12.66;62.33;102732.78;4957954;28;45415;-83
2021/09/29 23:39:52;;;;;;;;;2.00;0.75;;;;;12.66;62.47;102751.25;4945292;28;45508;-87
2021/09/29 23:42:17;;;;;;;;;4.00;1.00;;;;;12.65;62.62;102757.41;4955366;28;45252;-88
2021/09/29 23:44:42;;;;;;;;;1.00;1.00;;;;;12.59;62.60;102740.75;4957871;28;45547;-81
2021/09/29 23:47:08;;;;;;;;;2.00;1.00;;;;;12.57;62.52;102750.44;4970059;28;45424;-79
2021/09/29 23:49:33;;;;;;;;;2.25;1.50;;;;;12.57;62.72;102753.06;5008629;28;45466;-79
